Weather at Blue Grass Airport

Public forecast

Using degrees Fahrenheit for public forecast. Weather courtesy of forecast.io.

Current aviation weather report (METAR) for Blue Grass Airport

Retrieved 2020/09/29 22:37 UTC (0 seconds ago):

KLEX 292237Z 22004KT 10SM VCTS BKN075 13/09 A2986

Aviation forecast (TAF) for Blue Grass Airport

Retrieved 2020/09/29 18:27 UTC (4 hours ago):

TAF KLEX 291725Z 2918/3018 26005KT P6SM BKN011 TEMPO 2919/2923 -SHRA SCT011 BKN025 FM292300 27006KT P6SM SCT025 BKN040 FM300300 24007KT P6SM SCT040 FM301300 21013G23KT P6SM SCT100